»·PEaware :: N1778 KAUN-KFOT

N1778 :: KAUN-KFOT

FLIGHT INFORMATION

Flight Status: Arrived
Operator: Privately registered:
United States
More flights under this callsign
Pilot: Anders S. (12537)
Aircraft: MOONEY M-20K/M ENCORE BRAVO
(M20T)
More flights by this aircraft type
Origin: KAUN Auburn Mun
United States
Destination: KFOT Rohnerville
United States
More flights between these airports :: More routes between these airports
Route: +
File this flight plan on PilotEdge
Remarks:
Altitude:
(Current/Filed)
12,500ft
Speed:
(Current/Filed)
150kts
Departed: 20-Jul-17 11:10 AM
Arrived: 20-Jul-17 12:13 PM
Distance/Time
Traveled:
170nm/1:02
Distance/Time
To Go:
Arrived

Flight Plot

Page will automatically refresh every two minutes.

Flight plan parsing failed; only flown route is shown


Map Options




Map Legend


Flown Route
Filed Route
Departure Airport
Arrival Airport
Navaid (VOR, NDB)
Fix

Horizontal Profiles

Position Reports

Time Latitude Longitude Heading Altitude Ground
Speed
20-Jul-17 11:08 38.953267 -121.078849 166 1534ft 0kts
20-Jul-17 11:09 38.953307 -121.079103 288 1534ft 7kts
20-Jul-17 11:10 38.953659 -121.081961 354 1534ft 10kts
20-Jul-17 11:11 38.953999 -121.085570 264 1534ft 13kts
20-Jul-17 11:12 38.953840 -121.087802 268 1534ft 4kts
20-Jul-17 11:13 38.954864 -121.081056 83 1535ft 82kts
20-Jul-17 11:14 38.970707 -121.080858 301 2275ft 98kts
20-Jul-17 11:15 38.987783 -121.112269 303 3145ft 115kts
20-Jul-17 11:16 39.007124 -121.148009 303 3987ft 127kts
20-Jul-17 11:17 39.027842 -121.186458 303 4806ft 133kts
20-Jul-17 11:18 39.049292 -121.226229 303 5616ft 136kts
20-Jul-17 11:19 39.070886 -121.266546 304 6419ft 137kts
20-Jul-17 11:20 39.092608 -121.307224 305 7216ft 138kts
20-Jul-17 11:21 39.114912 -121.348678 305 7932ft 143kts
20-Jul-17 11:22 39.137855 -121.391443 304 8629ft 147kts
20-Jul-17 11:23 39.161819 -121.435986 304 9252ft 153kts
20-Jul-17 11:24 39.185940 -121.482177 304 9858ft 157kts
20-Jul-17 11:25 39.210701 -121.529609 303 10390ft 162kts
20-Jul-17 11:26 39.235974 -121.577431 301 10904ft 160kts
20-Jul-17 11:27 39.261217 -121.625188 299 11385ft 163kts
20-Jul-17 11:28 39.287477 -121.674985 299 11800ft 170kts
20-Jul-17 11:29 39.314288 -121.726010 298 12206ft 173kts
20-Jul-17 11:30 39.341498 -121.778604 299 12501ft 181kts
20-Jul-17 11:31 39.371133 -121.834612 299 12499ft 193kts
20-Jul-17 11:32 39.400973 -121.891152 299 12506ft 195kts
20-Jul-17 11:33 39.431641 -121.949381 299 12506ft 196kts
20-Jul-17 11:34 39.462295 -122.007907 299 12505ft 195kts
20-Jul-17 11:35 39.492785 -122.066147 299 12505ft 195kts
20-Jul-17 11:36 39.523236 -122.124273 299 12506ft 196kts
20-Jul-17 11:37 39.553950 -122.182858 299 12505ft 196kts
20-Jul-17 11:38 39.584517 -122.241248 299 12505ft 196kts
20-Jul-17 11:39 39.615085 -122.299650 299 12506ft 196kts
20-Jul-17 11:40 39.645627 -122.358289 299 12506ft 195kts
20-Jul-17 11:41 39.675993 -122.416664 299 12504ft 195kts
20-Jul-17 11:42 39.706392 -122.475140 299 12505ft 195kts
20-Jul-17 11:43 39.736675 -122.533444 299 12504ft 195kts
20-Jul-17 11:44 39.766908 -122.591732 299 12507ft 194kts
20-Jul-17 11:45 39.797261 -122.650278 299 12504ft 195kts
20-Jul-17 11:46 39.827448 -122.708555 299 12505ft 194kts
20-Jul-17 11:47 39.856438 -122.764457 299 12505ft 196kts
20-Jul-17 11:48 39.886841 -122.822548 299 12508ft 196kts
20-Jul-17 11:49 39.917648 -122.881459 299 12504ft 197kts
20-Jul-17 11:50 39.948570 -122.940638 299 12504ft 197kts
20-Jul-17 11:51 39.979363 -122.999590 299 12509ft 197kts
20-Jul-17 11:52 40.010154 -123.058559 299 12518ft 196kts
20-Jul-17 11:53 40.040996 -123.117590 299 12541ft 196kts
20-Jul-17 11:54 40.071606 -123.176711 299 12545ft 196kts
20-Jul-17 11:55 40.101851 -123.235597 300 12555ft 195kts
20-Jul-17 11:56 40.132244 -123.294086 300 12613ft 192kts
20-Jul-17 11:57 40.162333 -123.352284 300 12146ft 188kts
20-Jul-17 11:58 40.191522 -123.408837 300 11143ft 186kts
20-Jul-17 11:59 40.220329 -123.464348 301 10171ft 183kts
20-Jul-17 12:00 40.248641 -123.518008 303 9288ft 178kts
20-Jul-17 12:01 40.276398 -123.570776 303 8445ft 183kts
20-Jul-17 12:02 40.307117 -123.630495 303 7489ft 208kts
20-Jul-17 12:03 40.334684 -123.684420 303 6513ft 144kts
20-Jul-17 12:04 40.357291 -123.720555 311 5905ft 149kts
20-Jul-17 12:05 40.385189 -123.761499 310 5304ft 140kts
20-Jul-17 12:06 40.411675 -123.800456 311 5103ft 141kts
20-Jul-17 12:07 40.437997 -123.839180 311 4896ft 141kts
20-Jul-17 12:08 40.462958 -123.879149 298 4698ft 140kts
20-Jul-17 12:09 40.479871 -123.925570 298 4026ft 134kts
20-Jul-17 12:10 40.494688 -123.965686 301 3463ft 114kts
20-Jul-17 12:11 40.507633 -124.000357 303 2774ft 98kts
20-Jul-17 12:12 40.517576 -124.030807 298 2336ft 89kts
20-Jul-17 12:13 40.527313 -124.061126 299 1851ft 99kts
20-Jul-17 12:14 40.536757 -124.095788 300 1269ft 100kts
20-Jul-17 12:15 40.550069 -124.126319 313 478ft 85kts
20-Jul-17 12:16 40.553979 -124.132589 115 395ft 13kts
20-Jul-17 12:17 40.556051 -124.132822 38 395ft 0kts
20-Jul-17 12:18 40.556051 -124.132822 38 395ft 0kts
20-Jul-17 12:19 40.556051 -124.132822 38 395ft 0kts
20-Jul-17 12:20 40.556051 -124.132822 38 395ft 0kts
20-Jul-17 12:21 40.556051 -124.132822 38 395ft 0kts
20-Jul-17 12:22 40.556051 -124.132822 38 395ft 0kts
20-Jul-17 12:23 40.556051 -124.132822 38 395ft 0kts
20-Jul-17 12:24 40.556051 -124.132822 38 395ft 0kts
20-Jul-17 12:25 40.556051 -124.132822 38 395ft 0kts
20-Jul-17 12:26 40.556051 -124.132822 38 395ft 0kts
20-Jul-17 12:27 40.556051 -124.132822 38 395ft 0kts
20-Jul-17 12:28 40.556051 -124.132822 38 395ft 0kts
20-Jul-17 12:29 40.556051 -124.132822 38 395ft 0kts
20-Jul-17 12:30 40.556051 -124.132822 38 395ft 0kts

Navigation Log

Ident Type
Flight plan parsing failed, navigation log unavailable